METAR Data
IDs: Format: Raw Decoded Include TAF

Data at: 2126 UTC 24 Mar 2019

KGGG 242053Z 20008KT 10SM BKN022 OVC036 22/17 A3004 RMK AO2 SLP169 T02170172 56014
KGGG 241953Z 20008KT 10SM BKN022 OVC034 22/17 A3005 RMK AO2 SLP174 T02170172
KGGG 241853Z 21009KT 10SM OVC023 22/17 A3007 RMK AO2 SLP178 T02170167
KGGG 241753Z 21013KT 10SM OVC019 21/17 A3008 RMK AO2 SLP184 60000 T02110172 10211 20161 58009
KGGG 241705Z 23009KT 10SM OVC015 21/17 A3010 RMK AO2 T02060172
KGGG 241653Z 20012KT 10SM OVC014 21/17 A3010 RMK AO2 SLP191 T02060172
KGGG 241637Z 21010KT 180V240 10SM OVC014 21/17 A3011 RMK AO2 T02060172
KGGG 241553Z 20011KT 10SM BKN006 OVC039 19/17 A3011 RMK AO2 RAE1454 SLP193 P0000 T01890167
KGGG 241512Z 18009KT 10SM BKN009 OVC039 18/16 A3011 RMK AO2 RAE1454 P0000 T01780161
KGGG 241453Z 18007KT 10SM -RA BKN012 BKN027 OVC032 17/16 A3011 RMK AO2 RAB43 SLP193 P0000 60000 T01720161 51013
KGGG 241353Z 19007KT 10SM BKN012 BKN027 OVC032 17/15 A3010 RMK AO2 SLP189 T01670150
KGGG 241253Z 21004KT 10SM BKN012 16/14 A3009 RMK AO2 SLP187 T01610144
KGGG 241240Z 21005KT 10SM BKN012 16/14 A3009 RMK AO2 T01610144
KGGG 241153Z 17008KT 10SM FEW023 OVC029 16/14 A3007 RMK AO2 SLP180 T01610139 10178 20150 52001
KGGG 241149Z 17006KT 10SM FEW023 OVC030 16/14 A3007 RMK AO2
KGGG 241053Z 17005KT 10SM OVC026 16/13 A3007 RMK AO2 SLP179 T01560133
KGGG 240953Z AUTO 16005KT 10SM OVC026 16/13 A3007 RMK AO2 SLP179 T01560133
KGGG 240938Z AUTO 19004KT 10SM BKN027 OVC055 15/13 A3008 RMK AO2 T01500128
KGGG 240853Z AUTO 19006KT 10SM CLR 16/13 A3007 RMK AO2 SLP177 T01560128 58001
KGGG 240753Z AUTO 17010KT 10SM CLR 16/13 A3007 RMK AO2 SLP180 T01610128
KGGG 240653Z AUTO 18010KT 10SM FEW060 OVC100 17/13 A3008 RMK AO2 SLP182 T01720133
KGGG 240553Z AUTO 18014G21KT 10SM FEW110 18/13 A3007 RMK AO2 SLP179 T01780133 10217 20178 402440100 56004
KGGG 240453Z AUTO 18011KT 10SM FEW060 SCT110 18/12 A3007 RMK AO2 SLP179 T01830122
KGGG 240353Z AUTO 18011G19KT 10SM OVC100 19/12 A3007 RMK AO2 SLP180 T01940117
KGGG 240253Z AUTO 18008KT 10SM SCT080 OVC100 20/13 A3008 RMK AO2 SLP183 T02000128 53016
KGGG 240153Z 18008KT 10SM BKN080 OVC100 21/12 A3006 RMK AO2 SLP177 T02060122
KGGG 240053Z 20007KT 10SM OVC075 21/12 A3005 RMK AO2 SLP174 T02110117
KGGG 232353Z 17007KT 10SM BKN075 22/11 A3003 RMK AO2 SLP168 T02170111 10244 20211 56008
KGGG 232253Z 18010KT 10SM BKN075 BKN110 23/11 A3004 RMK AO2 SLP170 T02280106
KGGG 232153Z 19013KT 10SM BKN080 23/10 A3004 RMK AO2 SLP172 T02280100
KGGG 232053Z 20012G19KT 10SM BKN080 24/09 A3006 RMK AO2 SLP175 T02390094 56024
KGGG 231953Z 19008KT 10SM BKN080 23/11 A3008 RMK AO2 SLP182 T02330106
KGGG 231853Z 16010KT 10SM SCT100 23/11 A3010 RMK AO2 SLP190 T02280111
KGGG 231753Z 16009KT 10SM CLR 21/13 A3013 RMK AO2 SLP201 T02110128 10211 20111 56013
KGGG 231653Z 16011KT 10SM BKN070 18/13 A3013 RMK AO2 SLP202 T01830128
KGGG 231553Z 16009KT 10SM OVC070 17/12 A3016 RMK AO2 SLP210 T01720122
KGGG 231453Z 18005KT 10SM SCT070 SCT120 16/11 A3017 RMK AO2 SLP215 T01560111 51026
KGGG 231353Z 00000KT 10SM CLR 13/10 A3016 RMK AO2 SLP210 T01280100
KGGG 231253Z 06003KT 10SM CLR 12/09 A3012 RMK AO2 SLP198 T01170089
KGGG 231153Z 09004KT 10SM CLR 12/08 A3009 RMK AO2 SLP188 T01170083 10128 20100 50003
KGGG 231053Z 14003KT 10SM CLR 12/09 A3010 RMK AO2 SLP188 T01170089
KGGG 230953Z AUTO 00000KT 10SM CLR 11/08 A3009 RMK AO2 SLP186 T01060083